ENKB/KSU METAR and TAF weather

Enter ICAO airport designator
Station Type Date Time Source
ENKB METAR 2021/03/01 03:20 UTC NOAA

ENKB 010320Z AUTO 23020G33KT 9999 -DZ OVC027/// 07/02 Q1023 RMK WIND 745FT 24034G46KT


Station Type Date Time Source
ENKB Decoded METAR 2021/03/01 03:20 UTC NOAA

Kristiansund / Kvernberget, Norway (ENKB) 63-07N 007-50E 62M
Feb 28, 2021 - 10:20 PM EST / 2021.03.01 0320 UTC
Wind: from the SW (230 degrees) at 23 MPH (20 KT) gusting to 38 MPH (33 KT):0
Visibility: greater than 7 mile(s):0
Sky conditions: overcast
Weather: light drizzle
Temperature: 44 F (7 C)
Dew Point: 35 F (2 C)
Relative Humidity: 70%
Pressure (altimeter): 30.21 in. Hg (1023 hPa)
ob: ENKB 010320Z AUTO 23020G33KT 9999 -DZ OVC027/// 07/02 Q1023 RMK WIND 745FT 24034G46KT
cycle: 3

Station Type Date Time Source
ENKB TAF 2010/02/05 07:50 UTC NOAA

METAR ENKB 050750Z 15011KT 110V200 9999 SCT055 BKN070 03/M05 Q1007

Example: see airport list